createdAt,value
2023-04-18T00:01:01.891Z,11.80
2023-04-18T00:03:30.271Z,11.77
2023-04-18T00:05:58.144Z,11.67
2023-04-18T00:08:25.466Z,11.70
2023-04-18T00:10:52.893Z,11.71
2023-04-18T00:13:20.244Z,11.63
2023-04-18T00:15:47.893Z,11.61
2023-04-18T00:18:18.352Z,11.52
2023-04-18T00:20:46.291Z,11.54
2023-04-18T00:23:16.477Z,11.54
2023-04-18T00:25:43.824Z,11.50
2023-04-18T00:28:11.120Z,11.45
2023-04-18T00:30:38.608Z,11.48
2023-04-18T00:33:06.383Z,11.50
2023-04-18T00:35:33.928Z,11.53
2023-04-18T00:38:01.245Z,11.51
2023-04-18T00:40:28.637Z,11.31
2023-04-18T00:42:56.077Z,11.46
2023-04-18T00:45:23.429Z,11.36
2023-04-18T00:47:51.009Z,11.41
2023-04-18T00:50:18.436Z,11.27
2023-04-18T00:52:45.782Z,11.27
2023-04-18T00:55:13.161Z,11.12
2023-04-18T00:57:40.540Z,11.10
2023-04-18T01:00:10.051Z,11.21
2023-04-18T01:02:37.985Z,11.22
2023-04-18T01:05:06.558Z,11.26
2023-04-18T01:07:34.826Z,11.34
2023-04-18T01:10:02.210Z,11.25
2023-04-18T01:12:29.695Z,11.12
2023-04-18T01:14:57.309Z,11.11
2023-04-18T01:17:24.700Z,11.06
2023-04-18T01:19:52.137Z,11.01
2023-04-18T01:22:19.914Z,10.90
2023-04-18T01:24:47.345Z,10.85
2023-04-18T01:27:17.196Z,10.72
2023-04-18T01:29:44.567Z,10.80
2023-04-18T01:32:11.884Z,10.85
2023-04-18T01:34:39.279Z,10.80
2023-04-18T01:37:06.650Z,10.95
2023-04-18T01:39:33.999Z,11.04
2023-04-18T01:42:02.226Z,11.07
2023-04-18T01:44:29.627Z,11.05
2023-04-18T01:46:57.128Z,11.10
2023-04-18T01:49:25.494Z,11.16
2023-04-18T01:51:52.862Z,11.10
2023-04-18T01:54:22.063Z,11.13
2023-04-18T01:56:49.452Z,11.09
2023-04-18T01:59:17.153Z,11.07
2023-04-18T02:01:45.232Z,11.10
2023-04-18T02:04:12.917Z,11.09
2023-04-18T02:06:40.629Z,11.03
2023-04-18T02:09:07.953Z,11.10
2023-04-18T02:11:35.344Z,11.00
2023-04-18T02:14:03.802Z,11.21
2023-04-18T02:16:31.522Z,11.15
2023-04-18T02:18:58.851Z,11.14
2023-04-18T02:21:26.217Z,11.06
2023-04-18T02:23:53.639Z,11.19
2023-04-18T02:26:23.148Z,11.19
2023-04-18T02:28:50.467Z,11.14
2023-04-18T02:31:17.817Z,11.23
2023-04-18T02:33:46.452Z,11.00
2023-04-18T02:36:14.067Z,10.99
2023-04-18T02:38:43.057Z,11.01
2023-04-18T02:41:15.304Z,11.07
2023-04-18T02:43:42.749Z,11.24
2023-04-18T02:46:10.309Z,11.20
2023-04-18T02:48:37.706Z,11.11
2023-04-18T02:51:06.393Z,11.00
2023-04-18T02:53:35.687Z,11.05
2023-04-18T02:56:03.139Z,11.01
2023-04-18T02:58:50.482Z,11.06
2023-04-18T03:01:42.491Z,10.95
2023-04-18T03:04:13.175Z,11.09
2023-04-18T03:06:47.867Z,10.96
2023-04-18T03:09:16.815Z,11.03
2023-04-18T03:11:48.536Z,11.09
2023-04-18T03:14:18.566Z,11.13
2023-04-18T03:16:54.678Z,11.12
2023-04-18T03:19:26.575Z,11.21
2023-04-18T03:21:55.332Z,11.17
2023-04-18T03:24:23.020Z,11.18
2023-04-18T03:26:53.015Z,11.21
2023-04-18T03:29:23.767Z,11.05
2023-04-18T03:31:51.949Z,11.12
2023-04-18T03:34:19.479Z,11.11
2023-04-18T03:36:48.220Z,11.09
2023-04-18T03:39:15.995Z,11.13
2023-04-18T03:41:43.359Z,11.06
2023-04-18T03:44:11.364Z,10.94
2023-04-18T03:46:41.392Z,10.98
2023-04-18T03:49:10.377Z,10.96
2023-04-18T03:51:47.732Z,11.01
2023-04-18T03:54:18.578Z,10.99
2023-04-18T03:56:46.028Z,11.05
2023-04-18T03:59:15.522Z,11.06
2023-04-18T04:01:46.726Z,11.06
2023-04-18T04:04:15.691Z,10.88
2023-04-18T04:06:43.481Z,10.97
2023-04-18T04:09:11.124Z,11.10
2023-04-18T04:11:39.833Z,11.15
2023-04-18T04:14:10.033Z,11.13
2023-04-18T04:16:42.373Z,11.20
2023-04-18T04:19:12.077Z,11.24
2023-04-18T04:21:46.224Z,11.27
2023-04-18T04:24:16.044Z,11.35
2023-04-18T04:26:46.763Z,11.21
2023-04-18T04:29:17.975Z,11.17
2023-04-18T04:31:47.418Z,11.28
2023-04-18T04:34:21.698Z,11.30
2023-04-18T04:36:49.475Z,11.29
2023-04-18T04:39:17.531Z,11.33
2023-04-18T04:42:04.676Z,11.31
2023-04-18T04:44:41.805Z,11.36
2023-04-18T04:47:09.796Z,11.34
2023-04-18T04:49:39.243Z,11.46
2023-04-18T04:52:06.631Z,11.45
2023-04-18T04:54:34.178Z,11.34
2023-04-18T04:57:02.310Z,11.41
2023-04-18T04:59:29.720Z,11.19
2023-04-18T05:01:57.599Z,11.30
2023-04-18T05:04:25.995Z,11.45
2023-04-18T05:06:53.548Z,11.51
2023-04-18T05:09:21.034Z,11.53
2023-04-18T05:11:49.535Z,11.59
2023-04-18T05:14:17.750Z,11.40
2023-04-18T05:16:45.166Z,11.63
2023-04-18T05:19:12.522Z,11.63
2023-04-18T05:21:40.025Z,11.51
2023-04-18T05:24:08.058Z,11.62
2023-04-18T05:26:41.503Z,11.72
2023-04-18T05:29:15.348Z,11.51
2023-04-18T05:31:42.683Z,11.66
2023-04-18T05:34:13.751Z,11.51
2023-04-18T05:37:45.292Z,11.36
2023-04-18T05:40:13.558Z,11.64
2023-04-18T05:42:52.006Z,11.52
2023-04-18T05:45:20.467Z,11.61
2023-04-18T05:47:48.385Z,11.71
2023-04-18T05:50:15.914Z,11.82
2023-04-18T05:52:43.460Z,11.92
2023-04-18T05:55:11.187Z,12.08
2023-04-18T05:57:38.609Z,11.96
2023-04-18T06:00:07.132Z,11.99
2023-04-18T06:02:39.869Z,11.91
2023-04-18T06:05:08.137Z,12.05
2023-04-18T06:07:36.263Z,12.22
2023-04-18T06:10:11.160Z,12.32
2023-04-18T06:12:38.703Z,12.23
2023-04-18T06:15:06.713Z,12.22
2023-04-18T06:17:35.061Z,12.15
2023-04-18T06:20:03.933Z,12.60
2023-04-18T06:22:31.400Z,12.69
2023-04-18T06:24:58.897Z,12.53
2023-04-18T06:27:31.395Z,12.42
2023-04-18T06:29:59.358Z,12.77
2023-04-18T06:32:26.990Z,12.81
2023-04-18T06:34:54.386Z,13.00
2023-04-18T06:37:21.880Z,12.92
2023-04-18T06:39:50.520Z,13.21
2023-04-18T06:42:19.161Z,13.28
2023-04-18T06:44:51.519Z,13.34
2023-04-18T06:47:19.056Z,13.29
2023-04-18T06:49:46.417Z,13.32
2023-04-18T06:52:13.776Z,13.41
2023-04-18T06:54:41.187Z,13.62
2023-04-18T06:57:08.944Z,13.46
2023-04-18T06:59:41.063Z,13.56
2023-04-18T07:02:08.497Z,13.61
2023-04-18T07:04:36.019Z,13.83
2023-04-18T07:07:05.306Z,13.97
2023-04-18T07:09:32.806Z,14.31
2023-04-18T07:12:00.750Z,13.98
2023-04-18T07:14:28.570Z,14.22
2023-04-18T07:16:57.730Z,14.27
2023-04-18T07:19:25.169Z,14.06
2023-04-18T07:21:52.628Z,14.02
2023-04-18T07:24:20.078Z,14.21
2023-04-18T07:26:47.502Z,14.35
2023-04-18T07:29:14.931Z,14.79
2023-04-18T07:31:42.408Z,14.62
2023-04-18T07:34:09.844Z,14.58
2023-04-18T07:36:37.418Z,14.51
2023-04-18T07:39:04.754Z,14.53
2023-04-18T07:41:32.901Z,14.79
2023-04-18T07:44:01.358Z,14.62
2023-04-18T07:46:29.147Z,14.83
2023-04-18T07:49:04.611Z,14.99
2023-04-18T07:51:32.050Z,15.18
2023-04-18T07:53:59.640Z,14.99
2023-04-18T07:56:35.972Z,14.94
2023-04-18T07:59:03.434Z,14.66
2023-04-18T08:01:31.058Z,15.02
2023-04-18T08:08:26.690Z,14.22
2023-04-18T08:10:54.600Z,14.33
2023-04-18T08:21:11.837Z,14.31
2023-04-18T08:23:39.431Z,13.96
2023-04-18T08:26:07.087Z,14.37
2023-04-18T08:28:34.576Z,14.34
2023-04-18T08:31:01.974Z,14.40
2023-04-18T08:33:32.664Z,14.43
2023-04-18T08:36:00.009Z,14.73
2023-04-18T08:39:08.620Z,14.52
2023-04-18T08:44:38.300Z,14.94
2023-04-18T08:47:08.911Z,14.96
2023-04-18T08:49:36.347Z,14.68
2023-04-18T08:52:06.295Z,14.73
2023-04-18T08:54:33.837Z,14.70
2023-04-18T08:57:16.444Z,14.71
2023-04-18T08:59:46.354Z,14.69
2023-04-18T09:02:15.741Z,14.69
2023-04-18T09:04:45.334Z,15.13
2023-04-18T09:07:14.101Z,14.90
2023-04-18T09:09:45.980Z,15.11
2023-04-18T09:12:18.403Z,15.24
2023-04-18T09:14:47.149Z,15.27
2023-04-18T09:17:33.332Z,15.49
2023-04-18T09:20:01.453Z,15.31
2023-04-18T09:22:50.759Z,15.54
2023-04-18T09:25:46.639Z,15.41
2023-04-18T09:28:30.574Z,15.55
2023-04-18T09:30:59.343Z,15.64
2023-04-18T09:33:33.726Z,15.90
2023-04-18T09:36:25.151Z,15.84
2023-04-18T09:38:55.331Z,15.72
2023-04-18T09:41:24.076Z,15.79
2023-04-18T09:44:07.674Z,15.46
2023-04-18T09:46:35.216Z,15.29
2023-04-18T09:49:02.669Z,15.73
2023-04-18T09:51:30.065Z,15.65
2023-04-18T09:53:57.402Z,15.91
2023-04-18T09:56:28.163Z,16.12
2023-04-18T09:58:57.215Z,16.01
2023-04-18T10:01:30.879Z,15.91
2023-04-18T10:03:58.474Z,16.10
2023-04-18T10:06:27.491Z,15.96
2023-04-18T10:08:55.107Z,15.86
2023-04-18T10:11:23.717Z,15.86
2023-04-18T10:13:51.285Z,15.81
2023-04-18T10:16:18.704Z,15.91
2023-04-18T10:18:46.352Z,16.14
2023-04-18T10:21:13.727Z,15.87
2023-04-18T10:23:49.108Z,16.07
2023-04-18T10:26:16.548Z,16.28
2023-04-18T10:29:01.019Z,16.63
2023-04-18T10:31:29.668Z,16.51
2023-04-18T10:36:30.668Z,16.41
2023-04-18T10:39:21.263Z,16.79
2023-04-18T10:41:50.598Z,16.52
2023-04-18T10:44:19.740Z,17.22
2023-04-18T10:46:53.342Z,16.99
2023-04-18T10:49:30.250Z,16.98
2023-04-18T10:52:00.676Z,17.74
2023-04-18T10:54:50.133Z,17.94
2023-04-18T10:57:21.337Z,17.88
2023-04-18T10:59:52.192Z,17.66
2023-04-18T11:02:30.397Z,17.81
2023-04-18T11:05:07.094Z,18.25
2023-04-18T11:07:37.495Z,18.11
2023-04-18T11:10:05.654Z,18.42
2023-04-18T11:12:34.551Z,18.68
2023-04-18T11:15:09.835Z,18.46
2023-04-18T11:17:39.997Z,18.76
2023-04-18T11:20:17.200Z,18.59
2023-04-18T11:22:48.065Z,18.76
2023-04-18T11:25:16.466Z,18.96
2023-04-18T11:27:45.015Z,19.08
2023-04-18T11:30:13.480Z,19.25
2023-04-18T11:32:41.091Z,18.98
2023-04-18T11:35:09.735Z,19.14
2023-04-18T11:37:50.067Z,19.24
2023-04-18T11:40:17.627Z,19.65
2023-04-18T11:42:45.078Z,19.95
2023-04-18T11:45:13.274Z,19.47
2023-04-18T11:47:42.138Z,18.60
2023-04-18T11:50:10.970Z,18.21
2023-04-18T11:52:40.155Z,18.11
2023-04-18T11:55:17.728Z,18.43
2023-04-18T11:57:55.625Z,18.27
2023-04-18T12:00:37.236Z,18.33
2023-04-18T12:03:18.016Z,18.50
2023-04-18T12:05:45.921Z,18.07
2023-04-18T12:08:25.187Z,18.09
2023-04-18T12:10:53.601Z,18.13
2023-04-18T12:13:25.850Z,17.63
2023-04-18T12:15:54.255Z,17.38
2023-04-18T12:18:25.453Z,17.43
2023-04-18T12:20:54.549Z,17.20
2023-04-18T12:23:35.987Z,17.42
2023-04-18T12:26:04.538Z,17.62
2023-04-18T12:28:32.168Z,17.55
2023-04-18T12:30:59.662Z,17.75
2023-04-18T12:33:27.028Z,17.73
2023-04-18T12:35:54.389Z,17.87
2023-04-18T12:38:22.394Z,17.85
2023-04-18T12:40:50.340Z,17.76
2023-04-18T12:43:18.172Z,17.81
2023-04-18T12:45:45.939Z,18.18
2023-04-18T12:48:13.389Z,18.32
2023-04-18T12:50:40.833Z,18.28
2023-04-18T12:53:08.178Z,18.41
2023-04-18T12:55:36.069Z,18.44
2023-04-18T12:58:03.526Z,18.45
2023-04-18T13:00:31.513Z,18.54
2023-04-18T13:02:59.128Z,18.60
2023-04-18T13:05:29.851Z,18.62
2023-04-18T13:08:15.222Z,18.61
2023-04-18T13:10:44.143Z,18.48
2023-04-18T13:13:11.445Z,18.16
2023-04-18T13:15:39.064Z,17.74
2023-04-18T13:18:06.820Z,18.23
2023-04-18T13:20:34.415Z,17.99
2023-04-18T13:23:04.646Z,17.82
2023-04-18T13:25:32.052Z,18.05
2023-04-18T13:28:01.081Z,18.19
2023-04-18T13:30:28.657Z,18.30
2023-04-18T13:32:56.867Z,18.36
2023-04-18T13:35:24.416Z,18.82
2023-04-18T13:37:51.830Z,19.29
2023-04-18T13:40:19.270Z,19.73
2023-04-18T13:42:46.551Z,20.06
2023-04-18T13:45:13.866Z,20.05
2023-04-18T13:47:41.346Z,19.96
2023-04-18T13:50:09.352Z,20.74
2023-04-18T13:52:36.735Z,21.35
2023-04-18T13:55:04.237Z,21.16
2023-04-18T13:57:34.682Z,21.03
2023-04-18T14:00:02.511Z,21.19
2023-04-18T14:02:39.444Z,21.47
2023-04-18T14:05:07.431Z,20.75
2023-04-18T14:07:35.627Z,20.22
2023-04-18T14:10:03.007Z,19.77
2023-04-18T14:12:31.402Z,19.50
2023-04-18T14:14:58.750Z,19.40
2023-04-18T14:17:26.181Z,20.99
2023-04-18T14:19:53.749Z,22.12
2023-04-18T14:22:21.215Z,23.59
2023-04-18T14:24:49.160Z,22.95
2023-04-18T14:27:16.854Z,22.65
2023-04-18T14:29:44.243Z,21.38
2023-04-18T14:32:12.304Z,20.67
2023-04-18T14:34:39.744Z,20.85
2023-04-18T14:37:07.102Z,20.11
2023-04-18T14:39:34.594Z,20.89
2023-04-18T14:42:02.153Z,22.42
2023-04-18T14:44:30.236Z,21.80
2023-04-18T14:46:57.534Z,20.73
2023-04-18T14:49:24.901Z,20.23
2023-04-18T14:51:52.407Z,19.42
2023-04-18T14:54:19.815Z,19.12
2023-04-18T14:56:47.157Z,19.03
2023-04-18T14:59:16.611Z,18.81
2023-04-18T15:01:44.388Z,20.52
2023-04-18T15:04:11.883Z,19.60
2023-04-18T15:06:39.467Z,18.62
2023-04-18T15:09:07.108Z,18.47
2023-04-18T15:11:34.419Z,17.99
2023-04-18T15:14:01.800Z,17.96
2023-04-18T15:16:29.253Z,18.00
2023-04-18T15:18:56.582Z,17.76
2023-04-18T15:21:27.284Z,17.51
2023-04-18T15:23:54.602Z,17.71
2023-04-18T15:26:21.964Z,17.55
2023-04-18T15:28:49.368Z,17.56
2023-04-18T15:31:16.765Z,17.36
2023-04-18T15:33:44.268Z,17.29
2023-04-18T15:36:11.709Z,17.09
2023-04-18T15:38:40.035Z,16.86
2023-04-18T15:41:07.416Z,16.73
2023-04-18T15:43:34.872Z,16.39
2023-04-18T15:46:02.285Z,16.40
2023-04-18T15:48:34.001Z,16.30
2023-04-18T15:51:01.543Z,16.29
2023-04-18T15:53:28.961Z,16.16
2023-04-18T15:55:57.109Z,16.12
2023-04-18T15:58:27.790Z,16.12
2023-04-18T16:00:55.228Z,16.07
2023-04-18T16:03:23.923Z,16.03
2023-04-18T16:05:51.565Z,15.87
2023-04-18T16:08:18.939Z,15.89
2023-04-18T16:10:46.281Z,15.96
2023-04-18T16:13:14.078Z,15.94
2023-04-18T16:15:42.129Z,15.76
2023-04-18T16:18:09.732Z,15.69
2023-04-18T16:20:37.104Z,15.68
2023-04-18T16:23:04.450Z,15.56
2023-04-18T16:25:31.832Z,15.51
2023-04-18T16:27:59.164Z,15.51
2023-04-18T16:30:26.498Z,15.48
2023-04-18T16:32:54.460Z,15.45
2023-04-18T16:35:21.909Z,15.41
2023-04-18T16:37:49.306Z,15.37
2023-04-18T16:40:16.692Z,15.27
2023-04-18T16:42:44.078Z,15.22
2023-04-18T16:45:11.447Z,15.35
2023-04-18T16:47:38.862Z,15.31
2023-04-18T16:50:07.423Z,15.22
2023-04-18T16:52:34.682Z,15.13
2023-04-18T16:55:02.119Z,15.20
2023-04-18T16:57:29.516Z,15.12
2023-04-18T16:59:58.395Z,15.14
2023-04-18T17:02:25.909Z,15.02
2023-04-18T17:04:53.384Z,15.00
2023-04-18T17:07:20.697Z,14.97
2023-04-18T17:09:48.024Z,15.01
2023-04-18T17:12:15.676Z,15.01
2023-04-18T17:14:43.074Z,15.01
2023-04-18T17:17:10.621Z,14.86
2023-04-18T17:19:37.944Z,15.12
2023-04-18T17:22:05.551Z,15.11
2023-04-18T17:24:32.864Z,15.14
2023-04-18T17:27:01.330Z,15.17
2023-04-18T17:29:28.722Z,15.12
2023-04-18T17:31:56.441Z,15.14
2023-04-18T17:34:23.868Z,15.07
2023-04-18T17:36:51.243Z,15.16
2023-04-18T17:39:18.623Z,15.03
2023-04-18T17:41:46.797Z,15.03
2023-04-18T17:44:14.172Z,15.07
2023-04-18T17:46:41.624Z,14.93
2023-04-18T17:49:09.055Z,14.90
2023-04-18T17:51:36.427Z,14.91
2023-04-18T17:54:05.163Z,14.87
2023-04-18T17:56:32.554Z,14.70
2023-04-18T17:58:59.853Z,14.78
2023-04-18T18:01:30.216Z,14.79
2023-04-18T18:03:57.754Z,14.76
2023-04-18T18:06:25.090Z,14.78
2023-04-18T18:08:52.324Z,14.76
2023-04-18T18:11:19.730Z,14.73
2023-04-18T18:13:47.022Z,14.74
2023-04-18T18:16:14.397Z,14.65
2023-04-18T18:18:41.708Z,14.54
2023-04-18T18:21:09.073Z,14.41
2023-04-18T18:23:36.416Z,14.52
2023-04-18T18:26:04.324Z,14.51
2023-04-18T18:28:31.671Z,14.46
2023-04-18T18:30:59.205Z,14.44
2023-04-18T18:33:26.562Z,14.25
2023-04-18T18:35:54.915Z,14.27
2023-04-18T18:38:23.146Z,14.28
2023-04-18T18:40:50.572Z,14.30
2023-04-18T18:43:17.885Z,14.23
2023-04-18T18:45:45.223Z,14.25
2023-04-18T18:48:12.560Z,14.17
2023-04-18T18:50:41.912Z,14.19
2023-04-18T18:53:09.310Z,14.21
2023-04-18T18:55:36.679Z,14.16
2023-04-18T18:58:03.960Z,14.17
2023-04-18T19:00:31.304Z,14.18
2023-04-18T19:02:58.677Z,14.10
2023-04-18T19:05:26.225Z,14.16
2023-04-18T19:07:53.602Z,14.07
2023-04-18T19:10:21.148Z,14.11
2023-04-18T19:12:48.440Z,14.10
2023-04-18T19:15:15.724Z,14.01
2023-04-18T19:17:43.099Z,14.04
2023-04-18T19:20:10.795Z,14.00
2023-04-18T19:22:38.177Z,13.93
2023-04-18T19:25:06.124Z,13.90
2023-04-18T19:27:33.432Z,13.99
2023-04-18T19:30:00.853Z,13.76
2023-04-18T19:32:30.081Z,13.88
2023-04-18T19:34:57.503Z,13.95
2023-04-18T19:37:26.908Z,13.90
2023-04-18T19:39:54.177Z,13.93
2023-04-18T19:42:21.531Z,13.91
2023-04-18T19:44:48.860Z,13.87
2023-04-18T19:47:16.145Z,13.87
2023-04-18T19:49:44.397Z,13.83
2023-04-18T19:52:11.747Z,13.92
2023-04-18T19:54:39.144Z,13.73
2023-04-18T19:57:06.487Z,13.77
2023-04-18T19:59:33.805Z,13.71
2023-04-18T20:02:05.012Z,13.77
2023-04-18T20:04:34.288Z,13.75
2023-04-18T20:07:02.547Z,13.71
2023-04-18T20:09:29.920Z,13.54
2023-04-18T20:12:00.459Z,13.65
2023-04-18T20:14:28.843Z,13.69
2023-04-18T20:16:56.746Z,13.65
2023-04-18T20:19:26.974Z,13.69
2023-04-18T20:21:54.390Z,13.68
2023-04-18T20:24:21.997Z,13.63
2023-04-18T20:26:49.540Z,13.44
2023-04-18T20:29:16.984Z,13.52
2023-04-18T20:31:44.302Z,13.57
2023-04-18T20:34:11.626Z,13.62
2023-04-18T20:36:41.931Z,13.62
2023-04-18T20:39:09.403Z,13.37
2023-04-18T20:41:37.115Z,13.52
2023-04-18T20:44:09.146Z,13.50
2023-04-18T20:46:36.549Z,13.36
2023-04-18T20:49:03.908Z,13.38
2023-04-18T20:51:32.046Z,13.43
2023-04-18T20:53:59.344Z,13.37
2023-04-18T20:56:26.611Z,13.40
2023-04-18T20:58:53.999Z,13.42
2023-04-18T21:01:22.867Z,13.40
2023-04-18T21:03:50.333Z,13.38
2023-04-18T21:06:21.938Z,13.30
2023-04-18T21:08:49.290Z,13.17
2023-04-18T21:11:16.595Z,13.27
2023-04-18T21:13:43.856Z,13.27
2023-04-18T21:16:11.330Z,13.11
2023-04-18T21:18:38.735Z,13.10
2023-04-18T21:21:06.185Z,13.18
2023-04-18T21:23:33.483Z,13.17
2023-04-18T21:26:00.838Z,13.12
2023-04-18T21:28:28.139Z,13.10
2023-04-18T21:30:55.421Z,13.01
2023-04-18T21:33:24.590Z,13.05
2023-04-18T21:35:51.865Z,13.04
2023-04-18T21:38:19.121Z,13.04
2023-04-18T21:40:46.376Z,13.07
2023-04-18T21:43:13.768Z,13.08
2023-04-18T21:45:41.135Z,13.09
2023-04-18T21:48:09.356Z,13.00
2023-04-18T21:50:36.615Z,12.98
2023-04-18T21:53:03.890Z,13.00
2023-04-18T21:55:31.215Z,12.98
2023-04-18T21:57:58.586Z,12.96
2023-04-18T22:00:25.922Z,12.91
2023-04-18T22:02:53.442Z,12.93
2023-04-18T22:05:20.935Z,12.93
2023-04-18T22:07:57.355Z,12.95
2023-04-18T22:10:25.682Z,12.85
2023-04-18T22:12:56.018Z,12.91
2023-04-18T22:15:24.412Z,12.83
2023-04-18T22:17:51.912Z,12.86
2023-04-18T22:20:19.238Z,12.81
2023-04-18T22:22:46.589Z,12.84
2023-04-18T22:25:14.042Z,12.79
2023-04-18T22:27:42.682Z,12.59
2023-04-18T22:30:10.496Z,12.71
2023-04-18T22:32:37.968Z,12.66
2023-04-18T22:35:06.699Z,12.48
2023-04-18T22:37:34.092Z,12.65
2023-04-18T22:40:01.652Z,12.64
2023-04-18T22:42:30.018Z,12.59
2023-04-18T22:44:57.627Z,12.50
2023-04-18T22:47:24.971Z,12.46
2023-04-18T22:49:53.068Z,12.33
2023-04-18T22:52:20.423Z,12.33
2023-04-18T22:54:47.684Z,12.30
2023-04-18T22:57:14.932Z,12.18
2023-04-18T22:59:42.244Z,12.12
2023-04-18T23:02:10.556Z,12.15
2023-04-18T23:04:38.116Z,11.94
2023-04-18T23:07:05.476Z,11.93
2023-04-18T23:09:33.174Z,11.85
2023-04-18T23:12:00.437Z,11.85
2023-04-18T23:14:28.235Z,11.83
2023-04-18T23:16:55.623Z,11.66
2023-04-18T23:19:22.940Z,11.73
2023-04-18T23:21:50.370Z,11.63
2023-04-18T23:24:17.640Z,11.67
2023-04-18T23:26:44.990Z,11.62
2023-04-18T23:29:12.238Z,11.60
2023-04-18T23:31:39.502Z,11.64
2023-04-18T23:34:06.793Z,11.54
2023-04-18T23:36:34.191Z,11.46
2023-04-18T23:39:02.176Z,11.48
2023-04-18T23:41:29.464Z,11.50
2023-04-18T23:43:56.760Z,11.39
2023-04-18T23:46:24.092Z,11.37
2023-04-18T23:48:52.931Z,11.45
2023-04-18T23:51:21.601Z,11.47
2023-04-18T23:53:48.897Z,11.59
2023-04-18T23:56:16.226Z,11.51
2023-04-18T23:58:43.551Z,11.51
